createdAt,value
2019-04-25T00:02:33.307Z,9.00
2019-04-25T00:05:04.689Z,9.70
2019-04-25T00:07:35.110Z,10.47
2019-04-25T00:10:06.239Z,9.80
2019-04-25T00:12:37.855Z,8.27
2019-04-25T00:15:08.485Z,8.50
2019-04-25T00:17:40.114Z,8.10
2019-04-25T00:20:11.411Z,11.33
2019-04-25T00:22:47.939Z,7.80
2019-04-25T00:25:45.905Z,6.23
2019-04-25T00:28:15.695Z,7.67
2019-04-25T00:30:46.089Z,6.43
2019-04-25T00:33:16.465Z,7.83
2019-04-25T00:35:47.403Z,7.47
2019-04-25T00:38:17.711Z,6.00
2019-04-25T00:40:48.062Z,6.13
2019-04-25T00:43:18.384Z,8.87
2019-04-25T00:45:48.601Z,6.87
2019-04-25T00:48:18.985Z,11.87
2019-04-25T00:50:49.892Z,10.10
2019-04-25T00:53:21.221Z,6.87
2019-04-25T00:55:52.516Z,9.17
2019-04-25T00:58:52.833Z,8.10
2019-04-25T01:01:41.368Z,9.40
2019-04-25T01:04:13.333Z,11.90
2019-04-25T01:06:44.026Z,8.83
2019-04-25T01:09:17.018Z,10.80
2019-04-25T01:11:47.925Z,12.67
2019-04-25T01:14:18.258Z,12.50
2019-04-25T01:16:48.647Z,13.97
2019-04-25T01:19:18.786Z,17.20
2019-04-25T01:21:49.127Z,17.40
2019-04-25T01:24:19.621Z,20.07
2019-04-25T01:26:51.643Z,13.00
2019-04-25T01:29:23.394Z,11.20
2019-04-25T01:31:54.373Z,9.50
2019-04-25T01:34:39.763Z,10.13
2019-04-25T01:37:23.677Z,11.93
2019-04-25T01:40:19.630Z,11.97
2019-04-25T01:43:13.668Z,13.50
2019-04-25T01:45:43.930Z,12.30
2019-04-25T01:48:14.356Z,19.53
2019-04-25T01:50:44.680Z,17.53
2019-04-25T01:53:15.134Z,13.53
2019-04-25T01:55:53.738Z,10.90
2019-04-25T01:58:17.219Z,20.67
2019-04-25T02:00:48.664Z,17.00
2019-04-25T02:03:18.958Z,20.33
2019-04-25T02:05:49.165Z,19.83
2019-04-25T02:08:19.543Z,28.20
2019-04-25T02:10:57.016Z,25.87
2019-04-25T02:13:27.256Z,24.87
2019-04-25T02:15:57.489Z,24.87
2019-04-25T02:18:27.768Z,25.47
2019-04-25T02:21:00.223Z,23.43
2019-04-25T02:23:29.757Z,21.90
2019-04-25T02:26:12.656Z,23.50
2019-04-25T02:28:33.843Z,22.53
2019-04-25T02:31:08.531Z,22.73
2019-04-25T02:33:36.056Z,18.53
2019-04-25T02:36:08.671Z,17.17
2019-04-25T02:38:38.139Z,16.80
2019-04-25T02:41:09.115Z,15.20
2019-04-25T02:43:39.545Z,17.17
2019-04-25T02:46:31.847Z,18.27
2019-04-25T02:49:34.804Z,16.33
2019-04-25T02:52:03.423Z,16.03
2019-04-25T02:54:34.811Z,17.13
2019-04-25T02:57:07.770Z,18.40
2019-04-25T02:59:37.310Z,19.13
2019-04-25T03:02:09.226Z,16.73
2019-04-25T03:04:39.680Z,17.53
2019-04-25T03:07:11.319Z,17.90
2019-04-25T03:09:41.819Z,19.10
2019-04-25T03:12:26.936Z,18.97
2019-04-25T03:14:44.739Z,19.43
2019-04-25T03:17:15.056Z,18.17
2019-04-25T03:20:11.711Z,13.17
2019-04-25T03:22:44.249Z,17.70
2019-04-25T03:25:17.287Z,18.40
2019-04-25T03:27:45.682Z,18.97
2019-04-25T03:30:18.135Z,17.90
2019-04-25T03:32:51.510Z,21.20
2019-04-25T03:35:20.483Z,21.03
2019-04-25T03:37:50.753Z,20.07
2019-04-25T03:40:21.028Z,32.00
2019-04-25T03:42:51.286Z,21.77
2019-04-25T03:45:21.497Z,23.87
2019-04-25T03:47:53.030Z,21.43
2019-04-25T03:50:23.497Z,20.73
2019-04-25T03:52:54.060Z,16.27
2019-04-25T03:55:24.333Z,23.00
2019-04-25T03:57:54.637Z,19.10
2019-04-25T04:00:24.948Z,24.53
2019-04-25T04:02:55.447Z,27.50
2019-04-25T04:05:26.453Z,23.40
2019-04-25T04:08:05.246Z,27.33
2019-04-25T04:10:43.511Z,22.37
2019-04-25T04:13:24.336Z,27.70
2019-04-25T04:16:03.288Z,24.87
2019-04-25T04:18:49.133Z,33.63
2019-04-25T04:21:44.029Z,25.70
2019-04-25T04:24:26.847Z,22.73
2019-04-25T04:27:18.267Z,34.80
2019-04-25T04:29:48.494Z,22.97
2019-04-25T04:32:19.511Z,20.53
2019-04-25T04:34:49.849Z,32.63
2019-04-25T04:37:19.972Z,30.77
2019-04-25T04:39:50.233Z,29.53
2019-04-25T04:42:20.512Z,26.47
2019-04-25T04:44:50.705Z,24.07
2019-04-25T04:47:20.890Z,22.80
2019-04-25T04:49:51.155Z,24.37
2019-04-25T04:52:23.485Z,21.60
2019-04-25T04:55:04.417Z,21.77
2019-04-25T04:57:32.250Z,19.37
2019-04-25T04:59:57.002Z,28.13
2019-04-25T05:02:45.117Z,32.07
2019-04-25T05:05:24.665Z,30.83
2019-04-25T05:07:58.171Z,34.60
2019-04-25T05:10:28.392Z,34.43
2019-04-25T05:12:58.584Z,41.23
2019-04-25T05:15:29.125Z,38.47
2019-04-25T05:17:59.392Z,40.87
2019-04-25T05:20:29.596Z,39.50
2019-04-25T05:22:59.939Z,37.07
2019-04-25T05:25:30.250Z,39.13
2019-04-25T05:28:03.158Z,36.20
2019-04-25T05:30:46.415Z,37.37
2019-04-25T05:33:20.940Z,48.07
2019-04-25T05:35:49.901Z,32.27
2019-04-25T05:38:20.173Z,33.20
2019-04-25T05:41:01.239Z,33.37
2019-04-25T05:43:31.502Z,33.03
2019-04-25T05:46:03.272Z,31.40
2019-04-25T05:48:37.329Z,31.03
2019-04-25T05:51:08.180Z,27.63
2019-04-25T05:53:38.374Z,26.10
2019-04-25T05:56:36.665Z,22.83
2019-04-25T05:59:07.061Z,23.63
2019-04-25T06:01:39.170Z,22.13
2019-04-25T06:04:09.411Z,17.97
2019-04-25T06:06:39.501Z,16.00
2019-04-25T06:09:30.507Z,17.90
2019-04-25T06:12:20.086Z,17.37
2019-04-25T06:14:50.331Z,15.00
2019-04-25T06:17:26.346Z,18.07
2019-04-25T06:19:56.863Z,14.73
2019-04-25T06:22:45.947Z,17.40
2019-04-25T06:25:17.462Z,13.90
2019-04-25T06:27:56.518Z,16.27
2019-04-25T06:30:27.864Z,17.17
2019-04-25T06:32:58.183Z,18.13
2019-04-25T06:35:29.634Z,19.37
2019-04-25T06:37:59.931Z,21.97
2019-04-25T06:40:30.762Z,19.40
2019-04-25T06:43:01.121Z,23.53
2019-04-25T06:46:08.729Z,23.77
2019-04-25T06:48:46.221Z,28.97
2019-04-25T06:51:16.477Z,29.03
2019-04-25T06:53:46.650Z,32.73
2019-04-25T06:56:16.879Z,35.60
2019-04-25T06:58:47.213Z,35.83
2019-04-25T07:01:17.429Z,38.70
2019-04-25T07:03:47.651Z,37.43
2019-04-25T07:06:17.958Z,44.50
2019-04-25T07:08:48.081Z,39.50
2019-04-25T07:11:18.278Z,41.00
2019-04-25T07:13:48.635Z,40.00
2019-04-25T07:16:18.863Z,41.93
2019-04-25T07:18:49.066Z,33.43
2019-04-25T07:21:19.392Z,36.23
2019-04-25T07:23:49.773Z,32.70
2019-04-25T07:26:39.707Z,33.47
2019-04-25T07:29:28.672Z,34.87
2019-04-25T07:32:20.808Z,35.43
2019-04-25T07:34:51.076Z,37.87
2019-04-25T07:37:22.071Z,39.13
2019-04-25T07:39:52.288Z,39.83
2019-04-25T07:42:23.850Z,35.23
2019-04-25T07:44:55.215Z,35.70
2019-04-25T07:47:26.739Z,34.50
2019-04-25T07:49:57.558Z,33.77
2019-04-25T07:52:28.801Z,36.33
2019-04-25T07:54:59.434Z,33.87
2019-04-25T07:57:31.200Z,32.27
2019-04-25T08:00:03.461Z,33.33
2019-04-25T08:02:34.849Z,29.87
2019-04-25T08:05:11.025Z,29.57
2019-04-25T08:07:41.516Z,30.80
2019-04-25T08:10:13.998Z,30.63
2019-04-25T08:12:47.299Z,28.77
2019-04-25T08:15:33.846Z,29.17
2019-04-25T08:18:06.948Z,29.20
2019-04-25T08:20:37.142Z,31.03
2019-04-25T08:23:07.601Z,32.23
2019-04-25T08:25:39.387Z,26.23
2019-04-25T08:28:09.791Z,33.57
2019-04-25T08:30:40.474Z,30.73
2019-04-25T08:33:10.662Z,28.03
2019-04-25T08:35:40.938Z,29.20
2019-04-25T08:38:13.478Z,26.67
2019-04-25T08:40:44.196Z,26.27
2019-04-25T08:43:14.727Z,30.40
2019-04-25T08:45:44.949Z,26.20
2019-04-25T08:48:15.208Z,26.90
2019-04-25T08:51:10.469Z,26.43
2019-04-25T08:53:48.375Z,27.13
2019-04-25T08:56:24.380Z,31.67
2019-04-25T08:59:52.705Z,29.37
2019-04-25T09:02:47.203Z,28.33
2019-04-25T09:05:21.118Z,27.37
2019-04-25T09:07:51.356Z,26.77
2019-04-25T09:10:21.597Z,26.57
2019-04-25T09:12:53.595Z,24.33
2019-04-25T09:15:24.134Z,22.20
2019-04-25T09:17:54.893Z,25.80
2019-04-25T09:20:25.193Z,24.63
2019-04-25T09:22:55.522Z,25.07
2019-04-25T09:25:25.774Z,24.90
2019-04-25T09:27:55.953Z,26.73
2019-04-25T09:30:26.319Z,26.03
2019-04-25T09:32:56.502Z,26.37
2019-04-25T09:35:33.526Z,23.33
2019-04-25T09:38:04.416Z,23.70
2019-04-25T09:40:36.140Z,22.73
2019-04-25T09:43:06.509Z,23.00
2019-04-25T09:46:07.963Z,23.13
2019-04-25T09:48:59.994Z,24.33
2019-04-25T09:51:36.141Z,23.93
2019-04-25T09:54:25.992Z,28.00
2019-04-25T09:57:00.339Z,27.93
2019-04-25T09:59:30.565Z,26.40
2019-04-25T10:02:00.843Z,24.97
2019-04-25T10:04:31.223Z,25.43
2019-04-25T10:07:01.390Z,25.47
2019-04-25T10:09:31.595Z,23.70
2019-04-25T10:12:01.849Z,23.70
2019-04-25T10:15:18.394Z,24.03
2019-04-25T10:17:48.697Z,23.43
2019-04-25T10:20:19.653Z,25.17
2019-04-25T10:22:49.985Z,26.30
2019-04-25T10:25:20.296Z,29.03
2019-04-25T10:27:50.525Z,26.87
2019-04-25T10:30:23.723Z,24.47
2019-04-25T10:32:54.414Z,24.53
2019-04-25T10:35:24.459Z,28.50
2019-04-25T10:37:55.039Z,28.80
2019-04-25T10:40:25.468Z,27.07
2019-04-25T10:42:56.645Z,26.00
2019-04-25T10:45:27.342Z,26.73
2019-04-25T10:47:57.561Z,28.07
2019-04-25T10:50:27.718Z,28.50
2019-04-25T10:52:57.886Z,26.80
2019-04-25T10:55:28.140Z,34.73
2019-04-25T10:57:58.489Z,30.67
2019-04-25T11:00:40.807Z,37.43
2019-04-25T11:03:39.640Z,35.13
2019-04-25T11:06:23.949Z,45.20
2019-04-25T11:08:56.500Z,42.17
2019-04-25T11:11:26.265Z,39.53
2019-04-25T11:13:58.582Z,36.37
2019-04-25T11:16:28.725Z,40.63
2019-04-25T11:19:01.719Z,39.57
2019-04-25T11:21:33.298Z,45.33
2019-04-25T11:24:04.119Z,42.50
2019-04-25T11:26:34.601Z,42.43
2019-04-25T11:29:05.009Z,43.47
2019-04-25T11:31:48.973Z,45.83
2019-04-25T11:34:20.554Z,48.10
2019-04-25T11:36:50.882Z,46.67
2019-04-25T11:39:53.129Z,42.67
2019-04-25T11:42:24.358Z,48.97
2019-04-25T11:44:55.595Z,41.50
2019-04-25T11:47:25.845Z,46.70
2019-04-25T11:49:56.105Z,52.37
2019-04-25T11:52:28.115Z,42.03
2019-04-25T11:54:58.131Z,45.40
2019-04-25T11:57:28.161Z,49.33
2019-04-25T11:59:58.475Z,45.80
2019-04-25T12:02:29.333Z,43.10
2019-04-25T12:04:59.470Z,50.20
2019-04-25T12:07:29.821Z,51.23
2019-04-25T12:10:00.031Z,45.50
2019-04-25T12:12:30.324Z,45.67
2019-04-25T12:15:00.680Z,49.73
2019-04-25T12:17:30.878Z,49.43
2019-04-25T12:20:01.129Z,45.53
2019-04-25T12:22:31.551Z,42.57
2019-04-25T12:25:01.778Z,41.83
2019-04-25T12:27:31.944Z,48.17
2019-04-25T12:30:05.110Z,42.30
2019-04-25T12:32:35.248Z,43.97
2019-04-25T12:35:06.323Z,41.23
2019-04-25T12:37:36.525Z,46.10
2019-04-25T12:40:09.056Z,42.10
2019-04-25T12:42:39.225Z,43.77
2019-04-25T12:45:20.705Z,37.47
2019-04-25T12:47:54.750Z,47.30
2019-04-25T12:50:24.727Z,45.07
2019-04-25T12:52:56.021Z,46.40
2019-04-25T12:55:26.297Z,46.90
2019-04-25T12:57:56.629Z,40.40
2019-04-25T13:00:27.802Z,36.70
2019-04-25T13:02:58.741Z,44.43
2019-04-25T13:05:29.641Z,38.67
2019-04-25T13:08:00.863Z,43.33
2019-04-25T13:10:31.253Z,41.63
2019-04-25T13:13:03.968Z,48.83
2019-04-25T13:15:34.936Z,44.57
2019-04-25T13:18:05.254Z,51.67
2019-04-25T13:20:36.176Z,50.40
2019-04-25T13:23:08.873Z,45.67
2019-04-25T13:25:39.011Z,39.87
2019-04-25T13:28:24.709Z,41.57
2019-04-25T13:31:15.364Z,41.23
2019-04-25T13:33:59.527Z,44.43
2019-04-25T13:36:29.802Z,42.63
2019-04-25T13:39:00.650Z,40.43
2019-04-25T13:41:30.806Z,43.57
2019-04-25T13:44:01.133Z,42.03
2019-04-25T13:46:32.628Z,50.07
2019-04-25T13:49:04.533Z,46.53
2019-04-25T13:51:34.784Z,52.83
2019-04-25T13:54:05.053Z,45.13
2019-04-25T13:56:40.271Z,45.47
2019-04-25T13:59:07.972Z,48.17
2019-04-25T14:01:38.490Z,49.77
2019-04-25T14:04:09.007Z,44.90
2019-04-25T14:06:39.259Z,42.40
2019-04-25T14:09:13.577Z,41.17
2019-04-25T14:11:44.132Z,45.90
2019-04-25T14:14:14.394Z,41.23
2019-04-25T14:17:06.802Z,48.37
2019-04-25T14:20:00.232Z,46.87
2019-04-25T14:22:30.665Z,45.10
2019-04-25T14:25:00.923Z,47.13
2019-04-25T14:27:31.087Z,35.57
2019-04-25T14:30:03.751Z,44.77
2019-04-25T14:32:33.973Z,45.83
2019-04-25T14:35:05.535Z,43.30
2019-04-25T14:37:39.675Z,52.40
2019-04-25T14:40:09.122Z,50.50
2019-04-25T14:42:39.377Z,48.17
2019-04-25T14:45:10.913Z,42.73
2019-04-25T14:47:41.090Z,41.53
2019-04-25T14:50:12.326Z,42.00
2019-04-25T14:52:42.629Z,36.40
2019-04-25T14:55:44.185Z,45.40
2019-04-25T14:58:16.303Z,51.00
2019-04-25T15:00:48.799Z,46.17
2019-04-25T15:03:19.190Z,44.23
2019-04-25T15:05:49.344Z,45.47
2019-04-25T15:08:19.573Z,37.13
2019-04-25T15:10:49.743Z,48.30
2019-04-25T15:13:19.930Z,50.17
2019-04-25T15:15:50.241Z,43.70
2019-04-25T15:18:20.505Z,46.80
2019-04-25T15:20:50.711Z,45.10
2019-04-25T15:23:20.951Z,49.60
2019-04-25T15:25:51.181Z,47.60
2019-04-25T15:28:21.305Z,42.50
2019-04-25T15:30:51.529Z,39.07
2019-04-25T15:33:21.689Z,42.77
2019-04-25T15:35:57.861Z,40.43
2019-04-25T15:38:38.120Z,49.47
2019-04-25T15:41:14.791Z,40.00
2019-04-25T15:44:04.058Z,39.10
2019-04-25T15:46:36.378Z,47.87
2019-04-25T15:49:06.754Z,45.67
2019-04-25T15:51:37.770Z,43.20
2019-04-25T15:54:08.322Z,40.27
2019-04-25T15:56:38.436Z,43.73
2019-04-25T15:59:08.706Z,46.67
2019-04-25T16:01:39.092Z,39.67
2019-04-25T16:04:09.418Z,40.70
2019-04-25T16:06:39.738Z,36.53
2019-04-25T16:09:10.481Z,42.40
2019-04-25T16:11:40.794Z,38.57
2019-04-25T16:14:11.047Z,46.30
2019-04-25T16:16:41.300Z,36.30
2019-04-25T16:19:11.542Z,40.37
2019-04-25T16:21:42.211Z,40.50
2019-04-25T16:24:12.602Z,33.93
2019-04-25T16:26:44.446Z,44.83
2019-04-25T16:29:14.593Z,42.90
2019-04-25T16:31:47.302Z,37.70
2019-04-25T16:34:18.602Z,45.30
2019-04-25T16:36:48.892Z,39.03
2019-04-25T16:39:22.805Z,39.87
2019-04-25T16:41:53.014Z,33.03
2019-04-25T16:44:23.188Z,34.60
2019-04-25T16:46:53.468Z,27.50
2019-04-25T16:49:23.735Z,33.00
2019-04-25T16:51:54.003Z,26.07
2019-04-25T16:54:25.252Z,26.37
2019-04-25T16:56:55.450Z,27.67
2019-04-25T16:59:25.666Z,26.70
2019-04-25T17:01:55.891Z,27.80
2019-04-25T17:04:26.118Z,25.13
2019-04-25T17:06:56.353Z,28.07
2019-04-25T17:09:26.577Z,26.17
2019-04-25T17:11:56.975Z,26.37
2019-04-25T17:14:46.220Z,26.23
2019-04-25T17:17:40.534Z,26.03
2019-04-25T17:20:20.958Z,26.87
2019-04-25T17:22:51.380Z,22.53
2019-04-25T17:25:25.512Z,21.00
2019-04-25T17:27:55.757Z,21.90
2019-04-25T17:30:28.774Z,23.57
2019-04-25T17:33:17.876Z,25.20
2019-04-25T17:36:10.015Z,28.13
2019-04-25T17:38:46.979Z,26.97
2019-04-25T17:41:17.247Z,26.63
2019-04-25T17:43:47.465Z,25.00
2019-04-25T17:46:19.396Z,21.77
2019-04-25T17:48:49.605Z,22.13
2019-04-25T17:51:19.889Z,20.87
2019-04-25T17:53:50.146Z,21.90
2019-04-25T17:56:21.203Z,17.67
2019-04-25T17:58:51.430Z,18.70
2019-04-25T18:01:25.291Z,20.40
2019-04-25T18:03:55.642Z,20.53
2019-04-25T18:06:25.928Z,19.77
2019-04-25T18:09:04.186Z,20.57
2019-04-25T18:12:00.074Z,18.23
2019-04-25T18:14:31.210Z,20.50
2019-04-25T18:17:09.510Z,22.10
2019-04-25T18:19:49.705Z,25.00
2019-04-25T18:22:52.811Z,19.13
2019-04-25T18:25:43.251Z,18.97
2019-04-25T18:28:35.507Z,19.67
2019-04-25T18:31:06.918Z,24.93
2019-04-25T18:33:37.452Z,22.27
2019-04-25T18:36:29.448Z,24.73
2019-04-25T18:39:09.966Z,24.80
2019-04-25T18:41:57.950Z,29.70
2019-04-25T18:44:28.216Z,31.23
2019-04-25T18:46:58.533Z,37.37
2019-04-25T18:49:28.638Z,40.37
2019-04-25T18:52:04.273Z,39.00
2019-04-25T18:54:59.841Z,38.07
2019-04-25T18:57:49.964Z,47.83
2019-04-25T19:00:37.838Z,56.93
2019-04-25T19:03:27.067Z,50.10
2019-04-25T19:06:00.408Z,63.00
2019-04-25T19:08:30.569Z,59.13
2019-04-25T19:11:00.898Z,52.80
2019-04-25T19:13:31.299Z,47.17
2019-04-25T19:16:01.370Z,44.47
2019-04-25T19:18:31.543Z,43.30
2019-04-25T19:21:01.770Z,44.73
2019-04-25T19:23:32.114Z,48.40
2019-04-25T19:26:02.206Z,53.63
2019-04-25T19:28:32.392Z,52.90
2019-04-25T19:31:08.833Z,67.33
2019-04-25T19:33:48.838Z,51.13
2019-04-25T19:36:25.409Z,47.73
2019-04-25T19:39:01.997Z,41.17
2019-04-25T19:41:45.023Z,41.73
2019-04-25T19:44:26.608Z,37.27
2019-04-25T19:47:03.468Z,41.93
2019-04-25T19:49:40.633Z,33.10
2019-04-25T19:52:18.189Z,33.00
2019-04-25T19:54:54.715Z,32.33
2019-04-25T19:57:30.987Z,39.00
2019-04-25T20:00:09.605Z,37.73
2019-04-25T20:03:02.144Z,31.90
2019-04-25T20:05:52.434Z,34.00
2019-04-25T20:08:50.751Z,33.13
2019-04-25T20:11:35.439Z,33.37
2019-04-25T20:14:12.089Z,39.73
2019-04-25T20:16:51.858Z,39.40
2019-04-25T20:19:31.429Z,42.37
2019-04-25T20:22:01.678Z,43.43
2019-04-25T20:24:31.885Z,48.70
2019-04-25T20:27:02.196Z,50.20
2019-04-25T20:29:32.419Z,42.87
2019-04-25T20:32:02.553Z,47.50
2019-04-25T20:34:32.888Z,50.40
2019-04-25T20:37:03.561Z,51.43
2019-04-25T20:39:33.771Z,51.83
2019-04-25T20:42:04.013Z,53.77
2019-04-25T20:44:36.455Z,49.77
2019-04-25T20:47:05.969Z,50.03
2019-04-25T20:49:36.182Z,46.30
2019-04-25T20:52:06.582Z,44.73
2019-04-25T20:54:36.678Z,44.30
2019-04-25T20:57:06.972Z,44.50
2019-04-25T20:59:37.229Z,47.93
2019-04-25T21:02:09.237Z,40.50
2019-04-25T21:04:43.320Z,38.33
2019-04-25T21:07:13.643Z,34.93
2019-04-25T21:09:43.873Z,33.40
2019-04-25T21:12:14.197Z,40.67
2019-04-25T21:14:53.113Z,30.07
2019-04-25T21:17:27.125Z,25.83
2019-04-25T21:19:58.455Z,28.93
2019-04-25T21:22:28.725Z,24.40
2019-04-25T21:24:59.020Z,27.20
2019-04-25T21:27:29.441Z,24.93
2019-04-25T21:29:59.797Z,21.07
2019-04-25T21:32:31.831Z,21.47
2019-04-25T21:35:02.310Z,23.70
2019-04-25T21:37:32.509Z,23.93
2019-04-25T21:40:13.554Z,27.07
2019-04-25T21:42:53.145Z,21.27
2019-04-25T21:45:25.141Z,22.93
2019-04-25T21:47:55.831Z,25.23
2019-04-25T21:50:27.432Z,25.03
2019-04-25T21:52:57.905Z,26.20
2019-04-25T21:55:36.900Z,26.07
2019-04-25T21:58:13.896Z,26.93
2019-04-25T22:01:04.486Z,26.90
2019-04-25T22:03:39.094Z,27.97
2019-04-25T22:06:09.627Z,28.20
2019-04-25T22:08:39.952Z,31.83
2019-04-25T22:11:10.309Z,28.07
2019-04-25T22:13:40.850Z,25.07
2019-04-25T22:16:11.381Z,27.97
2019-04-25T22:18:41.959Z,24.90
2019-04-25T22:21:12.747Z,29.87
2019-04-25T22:23:43.170Z,24.90
2019-04-25T22:26:13.497Z,26.97
2019-04-25T22:28:43.876Z,27.70
2019-04-25T22:31:22.078Z,30.47
2019-04-25T22:34:09.810Z,30.30
2019-04-25T22:36:41.200Z,26.87
2019-04-25T22:39:11.699Z,28.77
2019-04-25T22:41:46.481Z,30.70
2019-04-25T22:44:18.212Z,29.23
2019-04-25T22:46:48.779Z,28.13
2019-04-25T22:49:18.955Z,27.37
2019-04-25T22:51:49.123Z,26.43
2019-04-25T22:54:19.618Z,27.70
2019-04-25T22:56:49.820Z,32.47
2019-04-25T22:59:20.315Z,24.73
2019-04-25T23:02:15.626Z,27.60
2019-04-25T23:05:12.109Z,25.07
2019-04-25T23:07:38.369Z,21.67
2019-04-25T23:10:09.087Z,20.00
2019-04-25T23:12:40.261Z,22.43
2019-04-25T23:15:11.010Z,24.53
2019-04-25T23:17:41.249Z,26.30
2019-04-25T23:20:11.954Z,18.83
2019-04-25T23:22:42.263Z,19.57
2019-04-25T23:25:14.341Z,22.07
2019-04-25T23:28:06.152Z,20.73
2019-04-25T23:30:55.847Z,19.07
2019-04-25T23:33:26.121Z,20.63
2019-04-25T23:35:56.478Z,22.10
2019-04-25T23:38:26.641Z,22.80
2019-04-25T23:40:56.936Z,20.77
2019-04-25T23:43:27.363Z,19.43
2019-04-25T23:45:57.591Z,24.97
2019-04-25T23:48:28.165Z,21.00
2019-04-25T23:50:58.475Z,31.97
2019-04-25T23:53:28.708Z,23.27
2019-04-25T23:55:59.007Z,27.00
2019-04-25T23:58:29.175Z,27.90
